sensor_id;sensor_type;location;lat;lon;timestamp;pressure;altitude;pressure_sealevel;temperature;humidity
68366;BME280;55283;51.466;5.478;2023-03-01T00:00:02;102914.34;;;19.81;36.09
68366;BME280;55283;51.466;5.478;2023-03-01T00:02:31;102916.31;;;19.81;35.88
68366;BME280;55283;51.466;5.478;2023-03-01T00:04:56;102927.16;;;19.82;35.92
68366;BME280;55283;51.466;5.478;2023-03-01T00:07:22;102919.13;;;19.81;35.94
68366;BME280;55283;51.466;5.478;2023-03-01T00:09:47;102921.53;;;19.79;36.04
68366;BME280;55283;51.466;5.478;2023-03-01T00:12:13;102921.53;;;19.79;35.87
68366;BME280;55283;51.466;5.478;2023-03-01T00:14:41;102917.09;;;19.78;35.93
68366;BME280;55283;51.466;5.478;2023-03-01T00:17:09;102919.91;;;19.78;35.97
68366;BME280;55283;51.466;5.478;2023-03-01T00:19:34;102919.13;;;19.81;35.99
68366;BME280;55283;51.466;5.478;2023-03-01T00:22:00;102913.94;;;19.79;35.94
68366;BME280;55283;51.466;5.478;2023-03-01T00:24:26;102923.91;;;19.77;36.08
68366;BME280;55283;51.466;5.478;2023-03-01T00:26:54;102914.69;;;19.76;36.03
68366;BME280;55283;51.466;5.478;2023-03-01T00:29:24;102912.31;;;19.78;35.94
68366;BME280;55283;51.466;5.478;2023-03-01T00:31:50;102911.13;;;19.79;35.76
68366;BME280;55283;51.466;5.478;2023-03-01T00:34:15;102905.91;;;19.78;35.94
68366;BME280;55283;51.466;5.478;2023-03-01T00:36:41;102907.09;;;19.77;36.03
68366;BME280;55283;51.466;5.478;2023-03-01T00:39:11;102912.31;;;19.78;36.22
68366;BME280;55283;51.466;5.478;2023-03-01T00:41:46;102915.88;;;19.75;35.85
68366;BME280;55283;51.466;5.478;2023-03-01T00:44:11;102921.06;;;19.73;36.02
68366;BME280;55283;51.466;5.478;2023-03-01T00:46:38;102916.72;;;19.76;36.00
68366;BME280;55283;51.466;5.478;2023-03-01T00:49:06;102913.47;;;19.74;35.86
68366;BME280;55283;51.466;5.478;2023-03-01T00:51:32;102908.31;;;19.76;36.13
68366;BME280;55283;51.466;5.478;2023-03-01T00:54:00;102904.66;;;19.72;36.02
68366;BME280;55283;51.466;5.478;2023-03-01T00:56:29;102894.25;;;19.72;35.95
68366;BME280;55283;51.466;5.478;2023-03-01T00:58:58;102895.47;;;19.71;35.93
68366;BME280;55283;51.466;5.478;2023-03-01T01:01:29;102898.25;;;19.71;36.06
68366;BME280;55283;51.466;5.478;2023-03-01T01:04:02;102895.09;;;19.73;36.08
68366;BME280;55283;51.466;5.478;2023-03-01T01:06:30;102902.28;;;19.74;35.79
68366;BME280;55283;51.466;5.478;2023-03-01T01:08:56;102885.06;;;19.72;35.99
68366;BME280;55283;51.466;5.478;2023-03-01T01:11:24;102870.19;;;19.60;36.05
68366;BME280;55283;51.466;5.478;2023-03-01T01:13:50;102885.50;;;19.74;35.99
68366;BME280;55283;51.466;5.478;2023-03-01T01:16:17;102889.88;;;19.75;35.94
68366;BME280;55283;51.466;5.478;2023-03-01T01:18:44;102883.47;;;19.71;36.00
68366;BME280;55283;51.466;5.478;2023-03-01T01:21:15;102883.84;;;19.69;35.94
68366;BME280;55283;51.466;5.478;2023-03-01T01:23:42;102877.44;;;19.68;35.93
68366;BME280;55283;51.466;5.478;2023-03-01T01:26:10;102875.88;;;19.71;36.03
68366;BME280;55283;51.466;5.478;2023-03-01T01:28:36;102868.69;;;19.70;35.58
68366;BME280;55283;51.466;5.478;2023-03-01T01:31:04;102866.25;;;19.68;35.86
68366;BME280;55283;51.466;5.478;2023-03-01T01:33:30;102855.06;;;19.68;35.93
68366;BME280;55283;51.466;5.478;2023-03-01T01:35:56;102853.88;;;19.70;35.84
68366;BME280;55283;51.466;5.478;2023-03-01T01:38:21;102845.47;;;19.70;35.98
68366;BME280;55283;51.466;5.478;2023-03-01T01:40:48;102845.06;;;19.67;35.93
68366;BME280;55283;51.466;5.478;2023-03-01T01:43:32;102841.47;;;19.67;35.91
68366;BME280;55283;51.466;5.478;2023-03-01T01:48:54;102840.63;;;19.63;35.90
68366;BME280;55283;51.466;5.478;2023-03-01T01:51:28;102839.47;;;19.64;35.92
68366;BME280;55283;51.466;5.478;2023-03-01T01:54:48;102841.84;;;19.65;36.07
68366;BME280;55283;51.466;5.478;2023-03-01T01:56:59;102841.44;;;19.63;35.83
68366;BME280;55283;51.466;5.478;2023-03-01T01:59:30;102839.84;;;19.66;36.08
68366;BME280;55283;51.466;5.478;2023-03-01T02:02:00;102832.66;;;19.65;35.94
68366;BME280;55283;51.466;5.478;2023-03-01T02:04:28;102829.47;;;19.66;35.82
68366;BME280;55283;51.466;5.478;2023-03-01T02:07:16;102841.47;;;19.67;36.01
68366;BME280;55283;51.466;5.478;2023-03-01T02:09:46;102833.09;;;19.67;35.75
68366;BME280;55283;51.466;5.478;2023-03-01T02:12:16;102825.06;;;19.65;36.09
68366;BME280;55283;51.466;5.478;2023-03-01T02:14:45;102819.03;;;19.63;35.68
68366;BME280;55283;51.466;5.478;2023-03-01T02:17:12;102815.06;;;19.64;35.83
68366;BME280;55283;51.466;5.478;2023-03-01T02:19:51;102815.06;;;19.64;35.86
68366;BME280;55283;51.466;5.478;2023-03-01T02:22:24;102812.28;;;19.64;35.95
68366;BME280;55283;51.466;5.478;2023-03-01T02:25:23;102813.06;;;19.65;35.89
68366;BME280;55283;51.466;5.478;2023-03-01T02:27:59;102806.25;;;19.62;35.91
68366;BME280;55283;51.466;5.478;2023-03-01T02:30:28;102804.66;;;19.61;35.84
68366;BME280;55283;51.466;5.478;2023-03-01T02:32:56;102809.44;;;19.61;36.04
68366;BME280;55283;51.466;5.478;2023-03-01T02:35:31;102815.06;;;19.64;35.77
68366;BME280;55283;51.466;5.478;2023-03-01T02:38:01;102807.47;;;19.61;35.94
68366;BME280;55283;51.466;5.478;2023-03-01T02:40:29;102812.22;;;19.61;35.98
68366;BME280;55283;51.466;5.478;2023-03-01T02:42:58;102806.25;;;19.59;35.70
68366;BME280;55283;51.466;5.478;2023-03-01T02:45:26;102809.84;;;19.63;35.82
68366;BME280;55283;51.466;5.478;2023-03-01T02:47:58;102811.84;;;19.62;35.86
68366;BME280;55283;51.466;5.478;2023-03-01T02:53:16;102811.84;;;19.62;35.78
68366;BME280;55283;51.466;5.478;2023-03-01T02:55:47;102811.84;;;19.62;35.78
68366;BME280;55283;51.466;5.478;2023-03-01T02:58:15;102811.84;;;19.59;35.83
68366;BME280;55283;51.466;5.478;2023-03-01T03:00:42;102815.84;;;19.61;35.80
68366;BME280;55283;51.466;5.478;2023-03-01T03:03:16;102806.25;;;19.62;35.80
68366;BME280;55283;51.466;5.478;2023-03-01T03:05:42;102820.25;;;19.62;35.91
68366;BME280;55283;51.466;5.478;2023-03-01T03:08:10;102801.44;;;19.59;35.67
68366;BME280;55283;51.466;5.478;2023-03-01T03:10:38;102805.84;;;19.60;35.87
68366;BME280;55283;51.466;5.478;2023-03-01T03:13:10;102807.03;;;19.59;35.96
68366;BME280;55283;51.466;5.478;2023-03-01T03:15:37;102806.63;;;19.61;35.65
68366;BME280;55283;51.466;5.478;2023-03-01T03:18:06;102811.84;;;19.59;35.77
68366;BME280;55283;51.466;5.478;2023-03-01T03:20:33;102805.44;;;19.58;35.72
68366;BME280;55283;51.466;5.478;2023-03-01T03:22:59;102811.03;;;19.58;35.82
68366;BME280;55283;51.466;5.478;2023-03-01T03:25:25;102809.41;;;19.57;35.96
68366;BME280;55283;51.466;5.478;2023-03-01T03:27:52;102798.22;;;19.57;35.91
68366;BME280;55283;51.466;5.478;2023-03-01T03:30:29;102807.03;;;19.59;35.94
68366;BME280;55283;51.466;5.478;2023-03-01T03:32:56;102809.78;;;19.56;35.69
68366;BME280;55283;51.466;5.478;2023-03-01T03:35:28;102806.56;;;19.54;35.94
68366;BME280;55283;51.466;5.478;2023-03-01T03:37:58;102810.97;;;19.55;35.79
68366;BME280;55283;51.466;5.478;2023-03-01T03:40:29;102796.16;;;19.54;35.98
68366;BME280;55283;51.466;5.478;2023-03-01T03:42:55;102807.75;;;19.53;35.92
68366;BME280;55283;51.466;5.478;2023-03-01T03:45:23;102801.38;;;19.52;35.99
68366;BME280;55283;51.466;5.478;2023-03-01T03:47:49;102800.53;;;19.52;35.75
68366;BME280;55283;51.466;5.478;2023-03-01T03:50:16;102803.78;;;19.54;35.85
68366;BME280;55283;51.466;5.478;2023-03-01T03:52:42;102798.16;;;19.50;35.96
68366;BME280;55283;51.466;5.478;2023-03-01T03:55:09;102802.53;;;19.51;35.91
68366;BME280;55283;51.466;5.478;2023-03-01T03:57:38;102794.94;;;19.52;35.98
68366;BME280;55283;51.466;5.478;2023-03-01T04:00:05;102803.75;;;19.50;35.98
68366;BME280;55283;51.466;5.478;2023-03-01T04:02:40;102791.34;;;19.51;35.75
68366;BME280;55283;51.466;5.478;2023-03-01T04:05:06;102789.34;;;19.52;35.98
68366;BME280;55283;51.466;5.478;2023-03-01T04:07:33;102786.97;;;19.50;35.80
68366;BME280;55283;51.466;5.478;2023-03-01T04:09:59;102782.97;;;19.51;35.87
68366;BME280;55283;51.466;5.478;2023-03-01T04:12:24;102782.97;;;19.51;35.74
68366;BME280;55283;51.466;5.478;2023-03-01T04:14:52;102777.78;;;19.50;36.00
68366;BME280;55283;51.466;5.478;2023-03-01T04:17:18;102773.34;;;19.49;35.81
68366;BME280;55283;51.466;5.478;2023-03-01T04:19:46;102770.19;;;19.50;35.81
68366;BME280;55283;51.466;5.478;2023-03-01T04:22:16;102774.56;;;19.48;35.86
68366;BME280;55283;51.466;5.478;2023-03-01T04:24:44;102780.94;;;19.48;35.90
68366;BME280;55283;51.466;5.478;2023-03-01T04:27:10;102775.34;;;19.48;35.77
68366;BME280;55283;51.466;5.478;2023-03-01T04:29:39;102770.56;;;19.49;35.86
68366;BME280;55283;51.466;5.478;2023-03-01T04:32:04;102774.56;;;19.48;35.89
68366;BME280;55283;51.466;5.478;2023-03-01T04:34:30;102763.78;;;19.50;35.89
68366;BME280;55283;51.466;5.478;2023-03-01T04:36:55;102765.38;;;19.47;35.71
68366;BME280;55283;51.466;5.478;2023-03-01T04:39:24;102765.75;;;19.45;35.83
68366;BME280;55283;51.466;5.478;2023-03-01T04:41:49;102758.97;;;19.47;35.84
68366;BME280;55283;51.466;5.478;2023-03-01T04:44:14;102752.56;;;19.46;35.96
68366;BME280;55283;51.466;5.478;2023-03-01T04:46:40;102750.59;;;19.47;35.71
68366;BME280;55283;51.466;5.478;2023-03-01T04:49:05;102751.38;;;19.47;35.95
68366;BME280;55283;51.466;5.478;2023-03-01T04:51:33;102736.59;;;19.47;35.88
68366;BME280;55283;51.466;5.478;2023-03-01T04:54:02;102743.38;;;19.45;35.90
68366;BME280;55283;51.466;5.478;2023-03-01T04:56:27;102740.56;;;19.45;35.89
68366;BME280;55283;51.466;5.478;2023-03-01T04:58:53;102741.38;;;19.46;35.96
68366;BME280;55283;51.466;5.478;2023-03-01T05:01:20;102739.34;;;19.43;35.91
68366;BME280;55283;51.466;5.478;2023-03-01T05:03:48;102742.16;;;19.43;35.84
68366;BME280;55283;51.466;5.478;2023-03-01T05:06:15;102751.75;;;19.45;35.83
68366;BME280;55283;51.466;5.478;2023-03-01T05:08:41;102748.94;;;19.42;35.92
68366;BME280;55283;51.466;5.478;2023-03-01T05:11:07;102760.13;;;19.42;36.06
68366;BME280;55283;51.466;5.478;2023-03-01T05:13:35;102750.13;;;19.41;36.10
68366;BME280;55283;51.466;5.478;2023-03-01T05:16:02;102746.91;;;19.39;36.08
68366;BME280;55283;51.466;5.478;2023-03-01T05:18:29;102748.13;;;19.41;36.03
68366;BME280;55283;51.466;5.478;2023-03-01T05:21:01;102752.53;;;19.42;35.90
68366;BME280;55283;51.466;5.478;2023-03-01T05:23:29;102742.91;;;19.40;35.84
68366;BME280;55283;51.466;5.478;2023-03-01T05:26:00;102732.53;;;19.40;35.98
68366;BME280;55283;51.466;5.478;2023-03-01T05:28:29;102727.75;;;19.41;35.96
68366;BME280;55283;51.466;5.478;2023-03-01T05:30:54;102718.94;;;19.39;35.99
68366;BME280;55283;51.466;5.478;2023-03-01T05:33:20;102717.75;;;19.40;35.87
68366;BME280;55283;51.466;5.478;2023-03-01T05:35:49;102717.38;;;19.41;35.87
68366;BME280;55283;51.466;5.478;2023-03-01T05:38:17;102709.78;;;19.42;35.96
68366;BME280;55283;51.466;5.478;2023-03-01T05:40:44;102705.34;;;19.37;35.95
68366;BME280;55283;51.466;5.478;2023-03-01T05:43:13;102706.97;;;19.38;36.01
68366;BME280;55283;51.466;5.478;2023-03-01T05:45:40;102696.94;;;19.34;35.80
68366;BME280;55283;51.466;5.478;2023-03-01T05:48:07;102706.97;;;19.38;35.95
68366;BME280;55283;51.466;5.478;2023-03-01T05:50:36;102713.72;;;19.37;35.87
68366;BME280;55283;51.466;5.478;2023-03-01T05:53:08;102703.38;;;19.38;35.95
68366;BME280;55283;51.466;5.478;2023-03-01T05:55:37;102701.75;;;19.37;35.92
68366;BME280;55283;51.466;5.478;2023-03-01T05:58:05;102703.38;;;19.38;36.02
68366;BME280;55283;51.466;5.478;2023-03-01T06:00:36;102702.53;;;19.37;36.08
68366;BME280;55283;51.466;5.478;2023-03-01T06:03:04;102703.75;;;19.36;35.98
68366;BME280;55283;51.466;5.478;2023-03-01T06:05:32;102699.31;;;19.32;36.07
68366;BME280;55283;51.466;5.478;2023-03-01T06:08:01;102704.94;;;19.35;35.90
68366;BME280;55283;51.466;5.478;2023-03-01T06:10:29;102703.72;;;19.33;36.07
68366;BME280;55283;51.466;5.478;2023-03-01T06:12:55;102699.31;;;19.32;36.04
68366;BME280;55283;51.466;5.478;2023-03-01T06:15:21;102706.53;;;19.33;35.97
68366;BME280;55283;51.466;5.478;2023-03-01T06:17:50;102702.94;;;19.32;35.88
68366;BME280;55283;51.466;5.478;2023-03-01T06:20:23;102700.94;;;19.33;36.08
68366;BME280;55283;51.466;5.478;2023-03-01T06:22:49;102706.53;;;19.33;35.74
68366;BME280;55283;51.466;5.478;2023-03-01T06:25:17;102703.72;;;19.33;36.05
68366;BME280;55283;51.466;5.478;2023-03-01T06:27:43;102704.53;;;19.33;35.96
68366;BME280;55283;51.466;5.478;2023-03-01T06:30:11;102706.94;;;19.35;36.16
68366;BME280;55283;51.466;5.478;2023-03-01T06:32:37;102718.13;;;19.35;36.49
68366;BME280;55283;51.466;5.478;2023-03-01T06:35:08;102716.56;;;19.41;36.53
68366;BME280;55283;51.466;5.478;2023-03-01T06:37:36;102717.41;;;19.45;36.52
68366;BME280;55283;51.466;5.478;2023-03-01T06:40:03;102717.41;;;19.45;36.74
68366;BME280;55283;51.466;5.478;2023-03-01T06:42:37;102720.53;;;19.40;36.85
68366;BME280;55283;51.466;5.478;2023-03-01T06:45:04;102719.31;;;19.37;37.06
68366;BME280;55283;51.466;5.478;2023-03-01T06:47:33;102716.13;;;19.35;37.39
68366;BME280;55283;51.466;5.478;2023-03-01T06:49:59;102711.38;;;19.43;37.20
68366;BME280;55283;51.466;5.478;2023-03-01T06:52:27;102716.56;;;19.41;37.23
68366;BME280;55283;51.466;5.478;2023-03-01T06:54:55;102711.81;;;19.49;37.76
68366;BME280;55283;51.466;5.478;2023-03-01T06:57:21;102713.50;;;19.57;37.71
68366;BME280;55283;51.466;5.478;2023-03-01T06:59:47;102709.91;;;19.56;37.25
68366;BME280;55283;51.466;5.478;2023-03-01T07:02:16;102708.22;;;19.44;37.59
68366;BME280;55283;51.466;5.478;2023-03-01T07:04:42;102699.81;;;19.48;37.73
68366;BME280;55283;51.466;5.478;2023-03-01T07:07:07;102693.88;;;19.53;38.26
68366;BME280;55283;51.466;5.478;2023-03-01T07:09:36;102690.66;;;19.55;37.84
68366;BME280;55283;51.466;5.478;2023-03-01T07:12:01;102694.25;;;19.48;38.21
68366;BME280;55283;51.466;5.478;2023-03-01T07:14:27;102703.09;;;19.57;38.19
68366;BME280;55283;51.466;5.478;2023-03-01T07:16:53;102707.47;;;19.55;37.84
68366;BME280;55283;51.466;5.478;2023-03-01T07:19:20;102724.22;;;19.51;37.38
68366;BME280;55283;51.466;5.478;2023-03-01T07:21:45;102722.22;;;19.48;37.04
68366;BME280;55283;51.466;5.478;2023-03-01T07:24:11;102727.69;;;19.34;36.76
68366;BME280;55283;51.466;5.478;2023-03-01T07:26:39;102728.09;;;19.32;37.90
68366;BME280;55283;51.466;5.478;2023-03-01T07:29:06;102727.69;;;19.30;37.32
68366;BME280;55283;51.466;5.478;2023-03-01T07:31:32;102719.28;;;19.27;37.85
68366;BME280;55283;51.466;5.478;2023-03-01T07:33:57;102724.47;;;19.28;38.05
68366;BME280;55283;51.466;5.478;2023-03-01T07:36:23;102725.31;;;19.32;37.81
68366;BME280;55283;51.466;5.478;2023-03-01T07:38:49;102724.44;;;19.25;37.22
68366;BME280;55283;51.466;5.478;2023-03-01T07:41:14;102728.81;;;19.26;37.75
68366;BME280;55283;51.466;5.478;2023-03-01T07:43:40;102722.88;;;19.27;37.64
68366;BME280;55283;51.466;5.478;2023-03-01T07:46:06;102730.47;;;19.30;37.79
68366;BME280;55283;51.466;5.478;2023-03-01T07:48:32;102727.72;;;19.37;37.72
68366;BME280;55283;51.466;5.478;2023-03-01T07:51:04;102731.28;;;19.34;38.03
68366;BME280;55283;51.466;5.478;2023-03-01T07:53:30;102728.91;;;19.33;37.90
68366;BME280;55283;51.466;5.478;2023-03-01T07:58:27;102732.53;;;19.40;38.10
68366;BME280;55283;51.466;5.478;2023-03-01T08:00:52;102734.97;;;19.45;38.08
68366;BME280;55283;51.466;5.478;2023-03-01T08:03:18;102732.25;;;19.53;38.00
68366;BME280;55283;51.466;5.478;2023-03-01T08:05:43;102731.47;;;19.56;38.08
68366;BME280;55283;51.466;5.478;2023-03-01T08:08:08;102734.75;;;19.68;37.80
68366;BME280;55283;51.466;5.478;2023-03-01T08:10:37;102724.78;;;19.75;37.84
68366;BME280;55283;51.466;5.478;2023-03-01T08:13:02;102730.38;;;19.75;38.27
68366;BME280;55283;51.466;5.478;2023-03-01T08:15:27;102726.34;;;19.68;36.81
68366;BME280;55283;51.466;5.478;2023-03-01T08:17:53;102726.38;;;19.72;37.75
68366;BME280;55283;51.466;5.478;2023-03-01T08:20:21;102718.38;;;19.71;37.13
68366;BME280;55283;51.466;5.478;2023-03-01T08:22:46;102724.00;;;19.78;38.09
68366;BME280;55283;51.466;5.478;2023-03-01T08:25:12;102726.44;;;19.83;38.27
68366;BME280;55283;51.466;5.478;2023-03-01T08:27:37;102726.88;;;19.88;38.28
68366;BME280;55283;51.466;5.478;2023-03-01T08:30:06;102730.91;;;19.95;38.29
68366;BME280;55283;51.466;5.478;2023-03-01T08:32:38;102720.53;;;19.99;38.11
68366;BME280;55283;51.466;5.478;2023-03-01T08:35:05;102726.94;;;20.03;38.11
68366;BME280;55283;51.466;5.478;2023-03-01T08:37:33;102715.75;;;20.06;38.13
68366;BME280;55283;51.466;5.478;2023-03-01T08:40:01;102716.16;;;20.08;38.07
68366;BME280;55283;51.466;5.478;2023-03-01T08:42:29;102710.19;;;20.13;37.99
68366;BME280;55283;51.466;5.478;2023-03-01T08:44:59;102709.00;;;20.18;38.40
68366;BME280;55283;51.466;5.478;2023-03-01T08:47:25;102693.41;;;20.21;38.27
68366;BME280;55283;51.466;5.478;2023-03-01T08:49:51;102702.22;;;20.26;38.25
68366;BME280;55283;51.466;5.478;2023-03-01T08:52:20;102705.81;;;20.30;38.16
68366;BME280;55283;51.466;5.478;2023-03-01T08:54:47;102700.63;;;20.32;37.97
68366;BME280;55283;51.466;5.478;2023-03-01T08:57:16;102700.66;;;20.36;38.11
68366;BME280;55283;51.466;5.478;2023-03-01T08:59:41;102699.88;;;20.39;38.05
68366;BME280;55283;51.466;5.478;2023-03-01T09:02:16;102699.09;;;20.42;38.17
68366;BME280;55283;51.466;5.478;2023-03-01T09:04:41;102695.53;;;20.45;38.23
68366;BME280;55283;51.466;5.478;2023-03-01T09:07:12;102689.91;;;20.45;37.67
68366;BME280;55283;51.466;5.478;2023-03-01T09:09:37;102689.50;;;20.50;38.19
68366;BME280;55283;51.466;5.478;2023-03-01T09:12:03;102690.72;;;20.56;38.19
68366;BME280;55283;51.466;5.478;2023-03-01T09:14:29;102680.72;;;20.59;38.22
68366;BME280;55283;51.466;5.478;2023-03-01T09:16:55;102682.75;;;20.66;37.96
68366;BME280;55283;51.466;5.478;2023-03-01T09:19:20;102678.72;;;20.67;38.00
68366;BME280;55283;51.466;5.478;2023-03-01T09:21:46;102679.94;;;20.73;37.98
68366;BME280;55283;51.466;5.478;2023-03-01T09:24:20;102679.13;;;20.76;37.67
68366;BME280;55283;51.466;5.478;2023-03-01T09:26:55;102681.94;;;20.72;36.33
68366;BME280;55283;51.466;5.478;2023-03-01T09:29:21;102672.31;;;20.63;37.09
68366;BME280;55283;51.466;5.478;2023-03-01T09:31:47;102666.31;;;20.64;37.19
68366;BME280;55283;51.466;5.478;2023-03-01T09:34:12;102669.53;;;20.66;37.19
68366;BME280;55283;51.466;5.478;2023-03-01T09:36:41;102673.13;;;20.70;37.16
68366;BME280;55283;51.466;5.478;2023-03-01T09:39:07;102674.72;;;20.71;37.02
68366;BME280;55283;51.466;5.478;2023-03-01T09:44:45;102682.72;;;20.73;37.09
68366;BME280;55283;51.466;5.478;2023-03-01T09:47:21;102657.91;;;20.75;37.22
68366;BME280;55283;51.466;5.478;2023-03-01T09:50:15;102663.53;;;20.75;37.05
68366;BME280;55283;51.466;5.478;2023-03-01T09:55:15;102651.91;;;20.76;36.88
68366;BME280;55283;51.466;5.478;2023-03-01T09:57:58;102654.31;;;20.78;37.12
68366;BME280;55283;51.466;5.478;2023-03-01T10:03:06;102627.50;;;20.80;37.31
68366;BME280;55283;51.466;5.478;2023-03-01T10:08:50;102630.28;;;20.80;37.57
68366;BME280;55283;51.466;5.478;2023-03-01T10:11:38;102625.06;;;20.83;37.66
68366;BME280;55283;51.466;5.478;2023-03-01T10:14:19;102617.88;;;20.82;37.30
68366;BME280;55283;51.466;5.478;2023-03-01T10:16:55;102621.88;;;20.84;37.28
68366;BME280;55283;51.466;5.478;2023-03-01T10:19:34;102610.66;;;20.84;37.39
68366;BME280;55283;51.466;5.478;2023-03-01T10:22:18;102611.88;;;20.83;37.23
68366;BME280;55283;51.466;5.478;2023-03-01T10:24:47;102608.28;;;20.86;37.43
68366;BME280;55283;51.466;5.478;2023-03-01T10:27:24;102600.25;;;20.88;37.43
68366;BME280;55283;51.466;5.478;2023-03-01T10:32:43;102591.81;;;20.92;37.38
68366;BME280;55283;51.466;5.478;2023-03-01T10:35:23;102587.03;;;20.92;37.19
68366;BME280;55283;51.466;5.478;2023-03-01T10:40:28;102591.44;;;20.93;36.93
68366;BME280;55283;51.466;5.478;2023-03-01T10:42:57;102581.44;;;20.92;36.33
68366;BME280;55283;51.466;5.478;2023-03-01T10:45:36;102585.00;;;20.96;36.73
68366;BME280;55283;51.466;5.478;2023-03-01T10:50:34;102591.00;;;21.06;37.25
68366;BME280;55283;51.466;5.478;2023-03-01T10:53:02;102588.19;;;21.13;36.81
68366;BME280;55283;51.466;5.478;2023-03-01T10:58:08;102595.44;;;21.07;37.42
68366;BME280;55283;51.466;5.478;2023-03-01T11:00:46;102586.19;;;21.06;37.66
68366;BME280;55283;51.466;5.478;2023-03-01T11:03:14;102585.00;;;21.11;37.36
68366;BME280;55283;51.466;5.478;2023-03-01T11:05:58;102581.00;;;21.19;37.30
68366;BME280;55283;51.466;5.478;2023-03-01T11:09:13;102580.16;;;21.25;37.30
68366;BME280;55283;51.466;5.478;2023-03-01T11:11:38;102577.78;;;21.28;37.36
68366;BME280;55283;51.466;5.478;2023-03-01T11:14:17;102579.34;;;21.29;37.95
68366;BME280;55283;51.466;5.478;2023-03-01T11:16:45;102579.34;;;21.32;38.34
68366;BME280;55283;51.466;5.478;2023-03-01T11:24:13;102584.94;;;21.39;38.13
68366;BME280;55283;51.466;5.478;2023-03-01T11:26:49;102578.50;;;21.42;38.36
68366;BME280;55283;51.466;5.478;2023-03-01T11:29:43;102581.72;;;21.44;38.90
68366;BME280;55283;51.466;5.478;2023-03-01T11:32:09;102580.50;;;21.45;39.85
68366;BME280;55283;51.466;5.478;2023-03-01T11:34:48;102575.72;;;21.42;38.61
68366;BME280;55283;51.466;5.478;2023-03-01T11:37:32;102568.53;;;21.34;38.82
68366;BME280;55283;51.466;5.478;2023-03-01T11:40:12;102564.94;;;21.30;38.00
68366;BME280;55283;51.466;5.478;2023-03-01T11:45:22;102558.16;;;21.24;38.30
68366;BME280;55283;51.466;5.478;2023-03-01T11:47:52;102549.34;;;21.22;37.97
68366;BME280;55283;51.466;5.478;2023-03-01T11:50:30;102556.53;;;21.30;38.28
68366;BME280;55283;51.466;5.478;2023-03-01T12:01:01;102555.28;;;21.42;37.84
68366;BME280;55283;51.466;5.478;2023-03-01T12:06:47;102539.22;;;21.46;38.04
68366;BME280;55283;51.466;5.478;2023-03-01T12:09:31;102539.63;;;21.44;38.06
68366;BME280;55283;51.466;5.478;2023-03-01T12:15:01;102545.25;;;21.37;37.92
68366;BME280;55283;51.466;5.478;2023-03-01T12:20:30;102524.84;;;21.33;37.59
68366;BME280;55283;51.466;5.478;2023-03-01T12:28:57;102522.41;;;21.35;37.75
68366;BME280;55283;51.466;5.478;2023-03-01T12:32:09;102516.44;;;21.33;37.91
68366;BME280;55283;51.466;5.478;2023-03-01T12:51:19;102501.22;;;21.31;38.08
68366;BME280;55283;51.466;5.478;2023-03-01T12:53:48;102492.00;;;21.30;38.00
68366;BME280;55283;51.466;5.478;2023-03-01T12:56:25;102483.97;;;21.32;38.18
68366;BME280;55283;51.466;5.478;2023-03-01T13:09:59;102457.53;;;21.33;38.50
68366;BME280;55283;51.466;5.478;2023-03-01T13:12:46;102440.69;;;21.33;38.66
68366;BME280;55283;51.466;5.478;2023-03-01T13:17:51;102453.13;;;21.36;38.82
68366;BME280;55283;51.466;5.478;2023-03-01T13:20:22;102447.09;;;21.37;38.72
68366;BME280;55283;51.466;5.478;2023-03-01T13:30:57;102423.44;;;21.35;38.64
68366;BME280;55283;51.466;5.478;2023-03-01T13:35:49;102425.06;;;21.36;38.77
68366;BME280;55283;51.466;5.478;2023-03-01T13:39:25;102426.69;;;21.33;38.80
68366;BME280;55283;51.466;5.478;2023-03-01T13:44:36;102413.44;;;21.34;38.93
68366;BME280;55283;51.466;5.478;2023-03-01T13:49:48;102404.59;;;21.35;38.80
68366;BME280;55283;51.466;5.478;2023-03-01T13:55:06;102387.81;;;21.32;38.92
68366;BME280;55283;51.466;5.478;2023-03-01T13:57:45;102374.22;;;21.30;38.98
68366;BME280;55283;51.466;5.478;2023-03-01T14:05:34;102374.56;;;21.32;39.10
68366;BME280;55283;51.466;5.478;2023-03-01T14:08:04;102376.19;;;21.33;38.77
68366;BME280;55283;51.466;5.478;2023-03-01T14:18:51;102378.63;;;21.28;38.92
68366;BME280;55283;51.466;5.478;2023-03-01T14:21:25;102367.81;;;21.26;39.09
68366;BME280;55283;51.466;5.478;2023-03-01T14:23:54;102363.81;;;21.23;39.04
68366;BME280;55283;51.466;5.478;2023-03-01T14:26:21;102358.19;;;21.27;39.05
68366;BME280;55283;51.466;5.478;2023-03-01T14:28:47;102358.19;;;21.23;39.20
68366;BME280;55283;51.466;5.478;2023-03-01T14:31:35;102350.22;;;21.22;39.17
68366;BME280;55283;51.466;5.478;2023-03-01T14:34:01;102353.03;;;21.22;38.99
68366;BME280;55283;51.466;5.478;2023-03-01T14:36:29;102362.66;;;21.21;39.06
68366;BME280;55283;51.466;5.478;2023-03-01T14:38:55;102355.47;;;21.13;39.14
68366;BME280;55283;51.466;5.478;2023-03-01T14:41:25;102356.28;;;21.10;39.22
68366;BME280;55283;51.466;5.478;2023-03-01T14:43:58;102340.22;;;21.14;39.20
68366;BME280;55283;51.466;5.478;2023-03-01T14:46:39;102339.84;;;21.15;39.26
68366;BME280;55283;51.466;5.478;2023-03-01T14:49:19;102331.00;;;21.17;39.23
68366;BME280;55283;51.466;5.478;2023-03-01T14:51:58;102319.78;;;21.17;39.06
68366;BME280;55283;51.466;5.478;2023-03-01T14:54:27;102332.59;;;21.14;39.20
68366;BME280;55283;51.466;5.478;2023-03-01T14:56:59;102322.22;;;21.15;39.01
68366;BME280;55283;51.466;5.478;2023-03-01T14:59:25;102317.78;;;21.14;39.19
68366;BME280;55283;51.466;5.478;2023-03-01T15:01:53;102301.38;;;21.09;39.11
68366;BME280;55283;51.466;5.478;2023-03-01T15:04:21;102307.00;;;21.09;39.29
68366;BME280;55283;51.466;5.478;2023-03-01T15:06:51;102308.22;;;21.08;39.21